< < Back
Terminal Aerodrome Forecast


Current Version              Previous Versions:   1  2  3  4  5  6  7  8  9  

Terminal Aerodrome Forecast

105
FTUS44 KHUN 220537
TAFHSV
TAF
KHSV 220537Z 2206/2306 03006KT P6SM SKC
     FM221500 03010KT P6SM SKC
     FM230000 00000KT P6SM SKC=



Latest METAR

704
SAUS80 KWBC 230500
MTRHSV
METAR KHSV 230453Z 04008KT 10SM CLR 12/06 A3016 RMK AO2 SLP209 LAST
T01170056


USA.gov is the U.S. government's official web portal to all federal, state and local government web resources and services.